Terminal Aerodrome Forecast
Issued by NWS

Home | Current Version | Previous Version | Text Only | Print | Product List | Glossary On
Versions: 1 2 3 4 5 6 7 8 9 10 11 12 13 14 15 16
000
FTUS46 KSTO 031324 AAA
TAFMHR
TAF AMD
KMHR 031324Z 0313/0412 17006KT P6SM FEW250
     FM040000 22011KT P6SM BKN250
     FM040400 16006KT P6SM OVC200=

USA.gov is the U.S. government's official web portal to all federal, state and local government web resources and services.